Главная страница
METAR-TAF:

METAR-TAF

Аэропорты :

Ла-Тонтута, Новая Каледония

широта: 22-01S, долгота: 166-13E, высота над уровнем моря: 16 м

Текущие метеонаблюдения

Эта сводка был подготовлена 38 минут назад, в 23:30 UTC
Ветер 7 Узел от восточно-юго-восточный, изменяющийся между восточный и юго-юго-восточный
Температура 20°C
Влажность 68%
Давление 1019 hPa
Видимость 10 км и более
Сплошная облачность на высоте 3900 фута

METAR: NWWW 212330Z AUTO 12007KT 090V150 9999 OVC039 20/14 Q1019 TEMPO 16016G26KT

Время: 11:08 (00:08 UTC)

Прогноз

Эта сводка был подготовлена 1 час и 8 минут назад, в 23:00 UTC
Прогноз действительный с 22-го 00 UTC до 22-го 24 UTC
Ветер 16 Узел от юго-юго-восточный
Видимость 10 км и более
Отдельные облака на высоте 4000 фута
временами
С 22-го 00 UTC до 22-го 06 UTC
Ветер 16 Узел от юго-юго-восточный с порывами до 26 Узел

TAF: NWWW 212300Z 2200/2224 16016KT 9999 SCT040 TEMPO 2200/2206 16016G26KT

Метеонаблюдения и прогнозы для более 4000 аэропортов (сводки METAR и TAF).

Имеющиеся станции представлены на карте желтыми и красными точками.

Чтобы увидеть название станции, наведите на нее мышь.

Затем щелкните, чтобы увидеть метеонаблюдения и метеопрогнозы.

Управление картой: чтобы увеличить масштаб, щелкните зеленые кнопки с черным крестиком; чтобы уменьшить масштаб, щелкните зеленую кнопку с тире; для просмотра соседних карт щелкайте зеленые стрелки.


METAR-TAF: